createdAt,value
2018-09-14T00:57:57.876Z,74.34
2018-09-14T01:00:25.368Z,74.17
2018-09-14T01:02:52.854Z,74.53
2018-09-14T01:05:20.259Z,75.13
2018-09-14T01:07:47.836Z,75.56
2018-09-14T01:10:15.306Z,75.80
2018-09-14T01:12:42.801Z,75.72
2018-09-14T01:15:10.230Z,75.81
2018-09-14T01:17:37.712Z,75.87
2018-09-14T01:20:05.181Z,76.08
2018-09-14T01:22:32.625Z,76.10
2018-09-14T01:25:00.104Z,75.89
2018-09-14T01:27:27.696Z,75.39
2018-09-14T01:29:55.148Z,75.13
2018-09-14T01:32:22.640Z,74.91
2018-09-14T01:34:50.116Z,73.99
2018-09-14T01:37:17.553Z,73.99
2018-09-14T01:39:44.989Z,73.85
2018-09-14T01:42:12.492Z,73.52
2018-09-14T01:44:39.928Z,73.77
2018-09-14T01:47:07.360Z,74.42
2018-09-14T01:49:34.840Z,74.86
2018-09-14T01:52:02.332Z,75.66
2018-09-14T01:54:29.767Z,75.90
2018-09-14T01:56:57.269Z,75.53
2018-09-14T01:59:24.681Z,75.35
2018-09-14T02:01:52.084Z,75.34
2018-09-14T02:04:19.531Z,75.01
2018-09-14T02:06:47.042Z,74.88
2018-09-14T02:09:14.490Z,74.62
2018-09-14T02:11:41.905Z,74.23
2018-09-14T02:14:10.247Z,74.34
2018-09-14T02:16:37.655Z,73.71
2018-09-14T02:19:05.067Z,73.42
2018-09-14T02:21:32.516Z,74.23
2018-09-14T02:24:00.023Z,74.25
2018-09-14T02:26:27.503Z,73.88
2018-09-14T02:28:54.952Z,74.07
2018-09-14T02:31:22.402Z,74.51
2018-09-14T02:33:49.871Z,74.91
2018-09-14T02:36:17.308Z,75.01
2018-09-14T02:38:44.741Z,75.20
2018-09-14T02:41:12.159Z,75.53
2018-09-14T02:43:39.643Z,75.55
2018-09-14T02:46:07.115Z,75.80
2018-09-14T02:48:34.507Z,75.37
2018-09-14T02:51:02.015Z,75.10
2018-09-14T02:53:29.467Z,75.21
2018-09-14T02:55:56.964Z,74.98
2018-09-14T02:58:24.456Z,74.79
2018-09-14T03:00:51.953Z,74.87
2018-09-14T03:03:19.926Z,74.39
2018-09-14T03:05:47.353Z,74.24
2018-09-14T03:08:14.782Z,74.32
2018-09-14T03:10:42.254Z,74.23
2018-09-14T03:13:09.646Z,73.85
2018-09-14T03:15:37.108Z,73.53
2018-09-14T03:18:04.544Z,73.44
2018-09-14T03:20:32.025Z,73.44
2018-09-14T03:22:59.440Z,73.43
2018-09-14T03:25:26.883Z,73.66
2018-09-14T03:27:54.302Z,73.81
2018-09-14T03:30:21.743Z,73.71
2018-09-14T03:32:49.220Z,73.64
2018-09-14T03:35:16.714Z,73.48
2018-09-14T03:37:44.158Z,73.49
2018-09-14T03:40:11.565Z,73.15
2018-09-14T03:42:39.013Z,73.12
2018-09-14T03:45:06.468Z,73.09
2018-09-14T03:47:33.920Z,73.36
2018-09-14T03:50:01.394Z,73.93
2018-09-14T03:52:28.861Z,73.71
2018-09-14T03:54:56.296Z,73.18
2018-09-14T03:57:23.857Z,73.08
2018-09-14T03:59:51.240Z,72.49
2018-09-14T04:02:18.737Z,72.67
2018-09-14T04:04:46.141Z,72.55
2018-09-14T04:07:13.642Z,72.50
2018-09-14T04:09:41.064Z,72.33
2018-09-14T04:12:08.479Z,72.15
2018-09-14T04:14:35.890Z,72.05
2018-09-14T04:17:03.361Z,72.12
2018-09-14T04:19:30.813Z,71.89
2018-09-14T04:21:58.288Z,71.62
2018-09-14T04:24:25.767Z,71.55
2018-09-14T04:26:54.106Z,71.30
2018-09-14T04:29:21.557Z,71.82
2018-09-14T04:31:48.978Z,71.74
2018-09-14T04:34:16.434Z,72.04
2018-09-14T04:36:43.861Z,71.67
2018-09-14T04:39:11.328Z,71.85
2018-09-14T04:41:38.765Z,71.83
2018-09-14T04:44:06.300Z,71.28
2018-09-14T04:46:33.742Z,71.14
2018-09-14T04:49:01.230Z,71.14
2018-09-14T04:51:29.012Z,71.02
2018-09-14T04:53:56.266Z,71.04
2018-09-14T04:56:23.703Z,70.95
2018-09-14T04:58:51.201Z,71.36
2018-09-14T05:01:18.667Z,71.46
2018-09-14T05:03:46.131Z,71.40
2018-09-14T05:06:13.598Z,71.40
2018-09-14T05:08:41.019Z,71.12
2018-09-14T05:11:08.603Z,71.48
2018-09-14T05:13:36.036Z,71.58
2018-09-14T05:16:03.588Z,71.81
2018-09-14T05:18:31.024Z,72.11
2018-09-14T05:20:58.439Z,72.42
2018-09-14T05:23:25.893Z,72.42
2018-09-14T05:25:53.347Z,72.65
2018-09-14T05:28:20.836Z,72.49
2018-09-14T05:30:48.328Z,72.62
2018-09-14T05:33:15.764Z,72.76
2018-09-14T05:35:43.254Z,72.79
2018-09-14T05:38:10.798Z,72.80
2018-09-14T05:40:38.518Z,72.57
2018-09-14T05:43:06.048Z,72.28
2018-09-14T05:45:33.467Z,72.43
2018-09-14T05:48:00.882Z,72.18
2018-09-14T05:50:28.373Z,72.37
2018-09-14T05:52:55.790Z,72.34
2018-09-14T05:55:23.375Z,71.89
2018-09-14T05:57:50.826Z,72.00
2018-09-14T06:00:18.309Z,71.71
2018-09-14T06:02:45.744Z,71.79
2018-09-14T06:05:13.279Z,71.35
2018-09-14T06:07:40.794Z,71.75
2018-09-14T06:10:08.243Z,71.44
2018-09-14T06:12:35.692Z,71.43
2018-09-14T06:15:03.222Z,71.61
2018-09-14T06:17:30.977Z,71.81
2018-09-14T06:19:58.445Z,71.79
2018-09-14T06:22:25.931Z,71.63
2018-09-14T06:24:53.346Z,71.41
2018-09-14T06:27:20.820Z,71.68
2018-09-14T06:29:48.296Z,71.99
2018-09-14T06:32:15.722Z,71.78
2018-09-14T06:34:43.191Z,71.49
2018-09-14T06:37:10.631Z,71.02
2018-09-14T06:39:38.056Z,70.64
2018-09-14T06:42:05.445Z,70.61
2018-09-14T06:44:32.915Z,70.40
2018-09-14T06:47:00.343Z,70.20
2018-09-14T06:49:27.884Z,69.75
2018-09-14T06:51:55.525Z,69.30
2018-09-14T06:54:22.948Z,68.95
2018-09-14T06:56:50.373Z,68.55
2018-09-14T06:59:17.854Z,68.19
2018-09-14T07:01:45.261Z,68.08
2018-09-14T07:04:12.760Z,68.26
2018-09-14T07:06:40.292Z,68.06
2018-09-14T07:09:07.694Z,67.46
2018-09-14T07:11:35.203Z,67.25
2018-09-14T07:14:02.792Z,66.80
2018-09-14T07:16:30.318Z,66.34
2018-09-14T07:18:57.809Z,65.84
2018-09-14T07:21:25.243Z,65.13
2018-09-14T07:23:52.658Z,64.74
2018-09-14T07:26:20.189Z,64.81
2018-09-14T07:28:47.700Z,64.87
2018-09-14T07:31:15.152Z,64.57
2018-09-14T07:33:42.650Z,63.90
2018-09-14T07:36:10.136Z,62.43
2018-09-14T07:38:37.563Z,61.89
2018-09-14T07:41:05.044Z,61.91
2018-09-14T07:43:32.501Z,62.20
2018-09-14T07:46:00.459Z,62.48
2018-09-14T07:48:28.294Z,62.21
2018-09-14T07:50:55.788Z,62.16
2018-09-14T07:53:23.322Z,61.83
2018-09-14T07:55:50.735Z,62.55
2018-09-14T07:58:18.163Z,62.88
2018-09-14T08:00:45.609Z,62.88
2018-09-14T08:03:13.107Z,62.18
2018-09-14T08:05:40.536Z,59.69
2018-09-14T08:08:07.986Z,56.28
2018-09-14T08:10:35.556Z,54.58
2018-09-14T08:13:03.049Z,56.06
2018-09-14T08:15:30.508Z,58.73
2018-09-14T08:17:58.004Z,59.30
2018-09-14T08:20:26.373Z,59.50
2018-09-14T08:22:53.890Z,59.89
2018-09-14T08:25:21.303Z,60.84
2018-09-14T08:27:48.766Z,61.79
2018-09-14T08:30:16.241Z,61.62
2018-09-14T08:32:43.678Z,61.81
2018-09-14T08:35:11.106Z,61.85
2018-09-14T08:37:38.614Z,61.69
2018-09-14T08:40:06.124Z,61.44
2018-09-14T08:42:33.661Z,61.53
2018-09-14T08:45:01.120Z,61.52
2018-09-14T08:47:28.619Z,61.25
2018-09-14T08:49:56.027Z,61.19
2018-09-14T08:52:23.515Z,61.30
2018-09-14T08:54:50.999Z,61.35
2018-09-14T08:57:18.437Z,61.20
2018-09-14T08:59:45.900Z,61.15
2018-09-14T09:02:13.399Z,61.18
2018-09-14T09:04:40.834Z,60.85
2018-09-14T09:07:08.301Z,60.84
2018-09-14T09:09:35.789Z,60.73
2018-09-14T09:12:03.312Z,60.82
2018-09-14T09:14:30.799Z,60.48
2018-09-14T09:16:58.343Z,60.64
2018-09-14T09:19:26.274Z,60.71
2018-09-14T09:21:53.657Z,60.28
2018-09-14T09:24:21.090Z,59.93
2018-09-14T09:26:48.523Z,59.30
2018-09-14T09:29:16.053Z,58.37
2018-09-14T09:31:43.479Z,57.60
2018-09-14T09:34:10.958Z,56.63
2018-09-14T09:36:38.389Z,56.49
2018-09-14T09:39:05.800Z,56.66
2018-09-14T09:41:34.011Z,55.60
2018-09-14T09:44:01.552Z,53.22
2018-09-14T09:46:29.775Z,51.86
2018-09-14T09:48:57.177Z,50.18
2018-09-14T09:51:24.641Z,48.86
2018-09-14T09:53:52.090Z,49.09
2018-09-14T09:56:19.680Z,48.04
2018-09-14T09:58:47.201Z,47.73
2018-09-14T10:01:14.653Z,47.74
2018-09-14T10:03:42.174Z,47.36
2018-09-14T10:06:09.712Z,46.71
2018-09-14T10:08:37.404Z,45.83
2018-09-14T10:11:04.910Z,45.74
2018-09-14T10:13:32.384Z,45.18
2018-09-14T10:15:59.946Z,44.90
2018-09-14T10:18:27.547Z,45.56
2018-09-14T10:20:55.076Z,45.35
2018-09-14T10:23:22.549Z,44.95
2018-09-14T10:25:50.216Z,43.93
2018-09-14T10:28:17.749Z,43.30
2018-09-14T10:30:45.415Z,43.79
2018-09-14T10:33:12.891Z,44.41
2018-09-14T10:35:40.420Z,42.97
2018-09-14T10:38:07.985Z,42.42
2018-09-14T10:40:35.769Z,42.89
2018-09-14T10:43:03.434Z,44.09
2018-09-14T10:45:31.041Z,43.51
2018-09-14T10:47:58.748Z,42.88
2018-09-14T10:50:25.827Z,41.60
2018-09-14T10:52:53.479Z,40.48
2018-09-14T10:55:23.513Z,40.46
2018-09-14T10:57:51.954Z,39.75
2018-09-14T11:00:19.564Z,40.38
2018-09-14T11:02:47.039Z,40.40
2018-09-14T11:05:14.633Z,41.07
2018-09-14T11:07:42.099Z,42.04
2018-09-14T11:10:09.612Z,41.54
2018-09-14T11:12:37.253Z,40.90
2018-09-14T11:15:04.767Z,40.27
2018-09-14T11:17:32.461Z,40.60
2018-09-14T11:19:59.962Z,40.89
2018-09-14T11:22:27.450Z,40.50
2018-09-14T11:24:55.956Z,40.24
2018-09-14T11:27:23.869Z,40.30
2018-09-14T11:29:51.377Z,40.23
2018-09-14T11:32:18.841Z,40.70
2018-09-14T11:34:46.546Z,39.58
2018-09-14T11:37:14.051Z,39.08
2018-09-14T11:39:41.426Z,39.00
2018-09-14T11:42:08.901Z,38.28
2018-09-14T11:44:36.132Z,38.96
2018-09-14T11:47:03.624Z,39.02
2018-09-14T11:49:31.071Z,38.83
2018-09-14T11:51:58.589Z,38.41
2018-09-14T11:54:26.126Z,37.97
2018-09-14T11:56:53.542Z,37.65
2018-09-14T11:59:20.511Z,37.57
2018-09-14T12:01:47.959Z,37.71
2018-09-14T12:04:15.499Z,36.92
2018-09-14T12:06:43.112Z,37.94
2018-09-14T12:09:10.591Z,37.76
2018-09-14T12:11:38.029Z,37.43
2018-09-14T12:14:05.502Z,37.63
2018-09-14T12:16:32.916Z,37.76
2018-09-14T12:19:00.867Z,37.80
2018-09-14T12:21:27.870Z,37.98
2018-09-14T12:23:54.850Z,37.79
2018-09-14T12:26:21.981Z,37.61
2018-09-14T12:28:49.445Z,37.24
2018-09-14T12:31:16.983Z,39.03
2018-09-14T12:33:44.128Z,37.27
2018-09-14T12:36:11.596Z,37.29
2018-09-14T12:38:39.052Z,37.61
2018-09-14T12:41:06.026Z,38.26
2018-09-14T12:43:33.461Z,38.05
2018-09-14T12:46:00.930Z,37.50
2018-09-14T12:48:29.222Z,37.06
2018-09-14T12:50:56.663Z,37.53
2018-09-14T12:53:24.553Z,38.36
2018-09-14T12:55:51.662Z,38.39
2018-09-14T12:58:19.093Z,38.11
2018-09-14T13:00:46.730Z,38.00
2018-09-14T13:03:14.171Z,38.49
2018-09-14T13:05:41.619Z,37.41
2018-09-14T13:08:09.192Z,36.08
2018-09-14T13:10:37.294Z,36.26
2018-09-14T13:13:04.743Z,36.51
2018-09-14T13:15:32.178Z,36.51
2018-09-14T13:17:59.632Z,36.08
2018-09-14T13:20:27.108Z,35.91
2018-09-14T13:22:54.614Z,36.24
2018-09-14T13:25:22.135Z,36.67
2018-09-14T13:27:49.623Z,36.19
2018-09-14T13:30:17.309Z,35.72
2018-09-14T13:32:44.814Z,35.49
2018-09-14T13:35:13.437Z,34.62
2018-09-14T13:37:40.946Z,34.48
2018-09-14T13:40:08.450Z,34.09
2018-09-14T13:42:36.251Z,34.60
2018-09-14T13:45:03.872Z,35.50
2018-09-14T13:47:30.932Z,35.74
2018-09-14T13:49:58.501Z,36.11
2018-09-14T13:52:26.073Z,36.53
2018-09-14T13:54:53.675Z,36.75
2018-09-14T13:57:21.246Z,36.96
2018-09-14T13:59:48.898Z,36.28
2018-09-14T14:02:16.576Z,35.89
2018-09-14T14:04:44.350Z,36.48
2018-09-14T14:07:12.418Z,37.12
2018-09-14T14:09:40.510Z,37.26
2018-09-14T14:12:08.517Z,36.72
2018-09-14T14:14:36.303Z,36.67
2018-09-14T14:17:04.674Z,36.18
2018-09-14T14:19:32.441Z,37.11
2018-09-14T14:22:01.451Z,37.32
2018-09-14T14:24:29.522Z,37.26
2018-09-14T14:26:58.010Z,36.34
2018-09-14T14:29:25.911Z,36.10
2018-09-14T14:31:54.330Z,36.06
2018-09-14T14:34:22.804Z,37.45
2018-09-14T14:36:51.508Z,38.64
2018-09-14T14:39:19.987Z,38.74
2018-09-14T14:41:48.477Z,39.17
2018-09-14T14:44:16.950Z,39.74
2018-09-14T14:46:45.443Z,39.94
2018-09-14T14:49:13.901Z,40.78
2018-09-14T14:51:43.012Z,41.25
2018-09-14T14:54:12.541Z,41.94
2018-09-14T14:56:41.132Z,42.07
2018-09-14T14:59:09.740Z,42.27
2018-09-14T15:01:38.429Z,42.64
2018-09-14T15:04:07.081Z,42.91
2018-09-14T15:06:35.546Z,43.01
2018-09-14T15:09:04.013Z,43.16
2018-09-14T15:11:32.581Z,43.32
2018-09-14T15:14:01.195Z,43.70
2018-09-14T15:16:29.704Z,43.80
2018-09-14T15:18:58.138Z,44.03
2018-09-14T15:21:26.713Z,44.72
2018-09-14T15:23:55.550Z,44.68
2018-09-14T15:26:24.202Z,45.18
2018-09-14T15:28:53.116Z,45.28
2018-09-14T15:31:23.456Z,45.62
2018-09-14T15:33:52.137Z,45.56
2018-09-14T15:36:20.779Z,45.62
2018-09-14T15:38:49.246Z,45.85
2018-09-14T15:41:17.678Z,46.12
2018-09-14T15:43:46.257Z,45.95
2018-09-14T15:46:15.127Z,46.18
2018-09-14T15:48:44.055Z,46.67
2018-09-14T15:51:12.539Z,46.79
2018-09-14T15:53:41.188Z,47.03
2018-09-14T15:56:09.702Z,46.81
2018-09-14T15:58:37.686Z,46.31
2018-09-14T16:01:06.578Z,45.75
2018-09-14T16:03:34.804Z,46.45
2018-09-14T16:06:03.377Z,46.83
2018-09-14T16:08:31.694Z,46.44
2018-09-14T16:11:00.587Z,46.14
2018-09-14T16:13:28.808Z,45.85
2018-09-14T16:15:58.163Z,46.41
2018-09-14T16:18:26.447Z,46.64
2018-09-14T16:20:54.718Z,46.58
2018-09-14T16:23:22.675Z,46.18
2018-09-14T16:25:50.801Z,45.07
2018-09-14T16:28:19.096Z,44.54
2018-09-14T16:30:47.303Z,44.02
2018-09-14T16:33:15.356Z,44.04
2018-09-14T16:35:43.771Z,43.79
2018-09-14T16:38:11.724Z,43.73
2018-09-14T16:40:39.996Z,42.95
2018-09-14T16:43:08.176Z,42.53
2018-09-14T16:45:36.324Z,42.35
2018-09-14T16:48:04.446Z,42.15
2018-09-14T16:50:32.672Z,41.80
2018-09-14T16:53:01.147Z,41.75
2018-09-14T16:55:29.369Z,41.99
2018-09-14T16:57:58.004Z,41.85
2018-09-14T17:00:25.993Z,42.38
2018-09-14T17:02:54.911Z,42.41
2018-09-14T17:05:23.281Z,42.39
2018-09-14T17:07:51.433Z,42.45
2018-09-14T17:10:20.344Z,42.76
2018-09-14T17:12:48.450Z,42.72
2018-09-14T17:15:16.515Z,42.72
2018-09-14T17:17:44.549Z,42.69
2018-09-14T17:20:12.734Z,42.81
2018-09-14T17:22:40.678Z,42.93
2018-09-14T17:25:08.928Z,42.71
2018-09-14T17:27:37.274Z,42.56
2018-09-14T17:30:05.549Z,42.45
2018-09-14T17:32:33.496Z,42.51
2018-09-14T17:35:01.493Z,42.62
2018-09-14T17:37:29.650Z,42.71
2018-09-14T17:39:58.252Z,42.77
2018-09-14T17:42:26.886Z,42.46
2018-09-14T17:44:55.405Z,42.42
2018-09-14T17:47:24.068Z,42.76
2018-09-14T17:49:52.038Z,42.60
2018-09-14T17:52:20.249Z,42.52
2018-09-14T17:54:48.472Z,42.51
2018-09-14T17:57:16.490Z,42.44
2018-09-14T17:59:46.211Z,42.15
2018-09-14T18:02:14.264Z,42.11
2018-09-14T18:04:42.313Z,41.96
2018-09-14T18:07:11.492Z,41.84
2018-09-14T18:09:40.209Z,41.99
2018-09-14T18:12:09.653Z,42.15
2018-09-14T18:14:38.181Z,42.03
2018-09-14T18:17:06.712Z,41.85
2018-09-14T18:19:35.131Z,41.71
2018-09-14T18:22:04.108Z,41.54
2018-09-14T18:24:32.766Z,41.22
2018-09-14T18:27:01.316Z,41.05
2018-09-14T18:29:29.909Z,41.21
2018-09-14T18:31:58.374Z,41.07
2018-09-14T18:34:26.861Z,41.08
2018-09-14T18:36:55.373Z,40.96
2018-09-14T18:39:23.813Z,41.04
2018-09-14T18:41:52.304Z,40.96
2018-09-14T18:44:20.690Z,41.04
2018-09-14T18:46:49.377Z,40.87
2018-09-14T18:49:17.968Z,40.67
2018-09-14T18:51:46.440Z,40.58
2018-09-14T18:54:14.998Z,40.51
2018-09-14T18:56:43.604Z,40.34
2018-09-14T18:59:12.520Z,40.19
2018-09-14T19:01:41.669Z,40.19
2018-09-14T19:04:10.510Z,40.24
2018-09-14T19:06:39.362Z,40.35
2018-09-14T19:09:08.712Z,40.87
2018-09-14T19:11:37.361Z,40.98
2018-09-14T19:14:06.451Z,40.73
2018-09-14T19:16:34.942Z,40.69
2018-09-14T19:19:03.416Z,40.82
2018-09-14T19:21:31.927Z,41.02
2018-09-14T19:24:00.376Z,41.42
2018-09-14T19:26:28.897Z,41.83
2018-09-14T19:28:57.384Z,42.19
2018-09-14T19:31:25.853Z,42.13
2018-09-14T19:33:54.512Z,42.41
2018-09-14T19:36:23.228Z,43.01
2018-09-14T19:38:51.656Z,42.84
2018-09-14T19:41:20.145Z,43.07
2018-09-14T19:43:49.480Z,43.60
2018-09-14T19:46:18.152Z,43.65
2018-09-14T19:48:46.618Z,43.94
2018-09-14T19:51:15.187Z,44.39
2018-09-14T19:53:43.787Z,44.50
2018-09-14T19:56:12.258Z,44.54
2018-09-14T19:58:40.753Z,44.56
2018-09-14T20:01:09.982Z,44.43
2018-09-14T20:03:38.594Z,45.43
2018-09-14T20:06:08.081Z,46.17
2018-09-14T20:08:36.722Z,46.22
2018-09-14T20:11:05.213Z,46.18
2018-09-14T20:13:33.750Z,46.04
2018-09-14T20:16:02.417Z,46.26
2018-09-14T20:18:31.165Z,46.40
2018-09-14T20:20:59.742Z,47.63
2018-09-14T20:23:28.493Z,46.93
2018-09-14T20:25:56.914Z,47.13
2018-09-14T20:28:26.017Z,47.27
2018-09-14T20:30:54.492Z,47.77
2018-09-14T20:33:23.230Z,48.01
2018-09-14T20:35:51.889Z,48.29
2018-09-14T20:38:20.340Z,48.61
2018-09-14T20:40:49.471Z,49.22
2018-09-14T20:43:17.992Z,49.63
2018-09-14T20:45:46.970Z,50.07
2018-09-14T20:48:15.535Z,49.86
2018-09-14T20:50:43.988Z,50.12
2018-09-14T20:53:12.496Z,49.94
2018-09-14T20:55:40.986Z,50.00
2018-09-14T20:58:09.651Z,50.05
2018-09-14T21:00:38.122Z,49.78
2018-09-14T21:03:06.600Z,49.60
2018-09-14T21:05:35.677Z,49.56
2018-09-14T21:08:04.510Z,49.36
2018-09-14T21:10:33.267Z,49.71
2018-09-14T21:13:01.867Z,50.33
2018-09-14T21:15:30.258Z,49.85
2018-09-14T21:17:58.932Z,49.57
2018-09-14T21:20:27.389Z,49.20
2018-09-14T21:22:55.797Z,49.35
2018-09-14T21:25:24.280Z,49.06
2018-09-14T21:27:53.888Z,48.90
2018-09-14T21:30:22.510Z,48.75
2018-09-14T21:32:50.931Z,48.98
2018-09-14T21:35:19.141Z,49.57
2018-09-14T21:37:47.568Z,49.40
2018-09-14T21:40:16.050Z,49.76
2018-09-14T21:42:45.619Z,49.62
2018-09-14T21:45:14.138Z,49.96
2018-09-14T21:47:42.959Z,50.08
2018-09-14T21:50:11.409Z,49.94
2018-09-14T21:52:40.258Z,50.02
2018-09-14T21:55:08.630Z,50.32
2018-09-14T21:57:37.266Z,50.70
2018-09-14T22:00:05.747Z,51.12
2018-09-14T22:02:34.083Z,51.51
2018-09-14T22:05:02.519Z,51.69
2018-09-14T22:07:31.201Z,51.69
2018-09-14T22:09:59.873Z,51.73
2018-09-14T22:12:28.368Z,51.99
2018-09-14T22:14:57.343Z,52.17
2018-09-14T22:17:25.791Z,52.36
2018-09-14T22:19:54.060Z,52.27
2018-09-14T22:22:22.122Z,52.34
2018-09-14T22:24:50.231Z,52.40
2018-09-14T22:27:18.241Z,52.65
2018-09-14T22:29:45.805Z,52.76
2018-09-14T22:32:13.281Z,52.82
2018-09-14T22:34:40.903Z,52.88
2018-09-14T22:37:08.307Z,52.87
2018-09-14T22:39:35.829Z,53.13
2018-09-14T22:42:03.267Z,53.12
2018-09-14T22:44:30.704Z,52.68
2018-09-14T22:46:58.232Z,52.64
2018-09-14T22:49:25.753Z,52.66
2018-09-14T22:51:53.252Z,52.48
2018-09-14T22:54:20.755Z,52.52
2018-09-14T22:56:48.220Z,52.52
2018-09-14T22:59:15.672Z,52.83
2018-09-14T23:01:43.099Z,53.14
2018-09-14T23:04:10.575Z,53.60
2018-09-14T23:06:38.078Z,53.69
2018-09-14T23:09:05.614Z,53.93
2018-09-14T23:11:32.999Z,54.36
2018-09-14T23:14:00.443Z,54.57
2018-09-14T23:16:28.273Z,54.80
2018-09-14T23:18:56.622Z,55.16
2018-09-14T23:21:24.043Z,55.30
2018-09-14T23:23:51.483Z,55.50
2018-09-14T23:26:19.430Z,55.80
2018-09-14T23:28:46.963Z,56.09
2018-09-14T23:31:14.448Z,56.46
2018-09-14T23:33:41.906Z,56.60
2018-09-14T23:36:09.415Z,56.92
2018-09-14T23:38:37.031Z,56.95
2018-09-14T23:41:04.516Z,57.29
2018-09-14T23:43:32.005Z,57.37
2018-09-14T23:45:59.457Z,57.44
2018-09-14T23:48:26.912Z,57.57
2018-09-14T23:50:54.332Z,57.93
2018-09-14T23:53:21.801Z,57.94
2018-09-14T23:55:49.279Z,57.95
2018-09-14T23:58:16.752Z,58.15
